sensor_id;sensor_type;location;lat;lon;timestamp;P1;durP1;ratioP1;P2;durP2;ratioP2
9860;SDS011;4969;52.304;4.968;2022-12-19T00:00:41;19.57;;;17.47;;
9860;SDS011;4969;52.304;4.968;2022-12-19T00:03:08;20.47;;;18.27;;
9860;SDS011;4969;52.304;4.968;2022-12-19T00:05:35;21.23;;;17.87;;
9860;SDS011;4969;52.304;4.968;2022-12-19T00:08:03;18.00;;;16.10;;
9860;SDS011;4969;52.304;4.968;2022-12-19T00:10:30;23.33;;;19.70;;
9860;SDS011;4969;52.304;4.968;2022-12-19T00:12:56;21.47;;;18.40;;
9860;SDS011;4969;52.304;4.968;2022-12-19T00:15:24;19.73;;;17.63;;
9860;SDS011;4969;52.304;4.968;2022-12-19T00:17:51;19.30;;;17.03;;
9860;SDS011;4969;52.304;4.968;2022-12-19T00:20:17;19.70;;;17.43;;
9860;SDS011;4969;52.304;4.968;2022-12-19T00:22:44;22.33;;;19.30;;
9860;SDS011;4969;52.304;4.968;2022-12-19T00:25:11;22.43;;;19.40;;
9860;SDS011;4969;52.304;4.968;2022-12-19T00:27:37;39.97;;;32.00;;
9860;SDS011;4969;52.304;4.968;2022-12-19T00:30:05;53.97;;;41.30;;
9860;SDS011;4969;52.304;4.968;2022-12-19T00:32:33;51.17;;;40.47;;
9860;SDS011;4969;52.304;4.968;2022-12-19T00:35:00;47.37;;;37.77;;
9860;SDS011;4969;52.304;4.968;2022-12-19T00:37:26;73.07;;;54.43;;
9860;SDS011;4969;52.304;4.968;2022-12-19T00:39:53;55.77;;;45.10;;
9860;SDS011;4969;52.304;4.968;2022-12-19T00:42:19;76.57;;;60.93;;
9860;SDS011;4969;52.304;4.968;2022-12-19T00:44:46;72.93;;;54.53;;
9860;SDS011;4969;52.304;4.968;2022-12-19T00:47:13;99.73;;;77.63;;
9860;SDS011;4969;52.304;4.968;2022-12-19T00:49:41;71.90;;;56.17;;
9860;SDS011;4969;52.304;4.968;2022-12-19T00:52:07;50.80;;;41.33;;
9860;SDS011;4969;52.304;4.968;2022-12-19T00:54:34;80.13;;;61.80;;
9860;SDS011;4969;52.304;4.968;2022-12-19T00:57:00;56.20;;;43.63;;
9860;SDS011;4969;52.304;4.968;2022-12-19T00:59:27;95.77;;;71.57;;
9860;SDS011;4969;52.304;4.968;2022-12-19T01:01:53;85.83;;;67.50;;
9860;SDS011;4969;52.304;4.968;2022-12-19T01:04:20;91.50;;;63.13;;
9860;SDS011;4969;52.304;4.968;2022-12-19T01:06:48;71.83;;;52.37;;
9860;SDS011;4969;52.304;4.968;2022-12-19T01:09:15;63.33;;;49.93;;
9860;SDS011;4969;52.304;4.968;2022-12-19T01:11:41;55.00;;;44.50;;
9860;SDS011;4969;52.304;4.968;2022-12-19T01:14:25;64.80;;;51.63;;
9860;SDS011;4969;52.304;4.968;2022-12-19T01:16:52;76.83;;;59.90;;
9860;SDS011;4969;52.304;4.968;2022-12-19T01:19:19;73.27;;;55.07;;
9860;SDS011;4969;52.304;4.968;2022-12-19T01:21:45;45.20;;;36.17;;
9860;SDS011;4969;52.304;4.968;2022-12-19T01:24:13;63.27;;;44.33;;
9860;SDS011;4969;52.304;4.968;2022-12-19T01:26:40;58.03;;;46.07;;
9860;SDS011;4969;52.304;4.968;2022-12-19T01:29:06;57.80;;;45.80;;
9860;SDS011;4969;52.304;4.968;2022-12-19T01:31:33;51.30;;;39.93;;
9860;SDS011;4969;52.304;4.968;2022-12-19T01:34:00;47.40;;;37.83;;
9860;SDS011;4969;52.304;4.968;2022-12-19T01:36:26;80.53;;;46.90;;
9860;SDS011;4969;52.304;4.968;2022-12-19T01:38:55;39.50;;;31.53;;
9860;SDS011;4969;52.304;4.968;2022-12-19T01:41:21;50.30;;;40.23;;
9860;SDS011;4969;52.304;4.968;2022-12-19T01:43:52;43.13;;;34.73;;
9860;SDS011;4969;52.304;4.968;2022-12-19T01:46:21;42.90;;;34.40;;
9860;SDS011;4969;52.304;4.968;2022-12-19T01:48:52;49.43;;;39.57;;
9860;SDS011;4969;52.304;4.968;2022-12-19T01:51:20;48.97;;;39.40;;
9860;SDS011;4969;52.304;4.968;2022-12-19T01:53:49;35.80;;;29.90;;
9860;SDS011;4969;52.304;4.968;2022-12-19T01:56:21;40.87;;;33.50;;
9860;SDS011;4969;52.304;4.968;2022-12-19T01:58:49;46.67;;;37.47;;
9860;SDS011;4969;52.304;4.968;2022-12-19T02:01:19;36.63;;;29.83;;
9860;SDS011;4969;52.304;4.968;2022-12-19T02:03:45;40.27;;;30.63;;
9860;SDS011;4969;52.304;4.968;2022-12-19T02:06:13;28.13;;;23.67;;
9860;SDS011;4969;52.304;4.968;2022-12-19T02:08:40;34.70;;;27.20;;
9860;SDS011;4969;52.304;4.968;2022-12-19T02:11:08;47.77;;;30.67;;
9860;SDS011;4969;52.304;4.968;2022-12-19T02:13:36;37.27;;;28.53;;
9860;SDS011;4969;52.304;4.968;2022-12-19T02:16:05;33.40;;;27.93;;
9860;SDS011;4969;52.304;4.968;2022-12-19T02:18:42;31.37;;;25.20;;
9860;SDS011;4969;52.304;4.968;2022-12-19T02:21:21;27.80;;;23.27;;
9860;SDS011;4969;52.304;4.968;2022-12-19T02:27:05;32.73;;;25.77;;
9860;SDS011;4969;52.304;4.968;2022-12-19T02:30:01;30.33;;;23.70;;
9860;SDS011;4969;52.304;4.968;2022-12-19T02:32:33;26.80;;;21.97;;
9860;SDS011;4969;52.304;4.968;2022-12-19T02:35:10;37.10;;;22.17;;
9860;SDS011;4969;52.304;4.968;2022-12-19T02:37:44;30.77;;;23.50;;
9860;SDS011;4969;52.304;4.968;2022-12-19T02:40:14;21.37;;;18.13;;
9860;SDS011;4969;52.304;4.968;2022-12-19T02:42:46;26.33;;;21.20;;
9860;SDS011;4969;52.304;4.968;2022-12-19T02:45:16;20.23;;;18.10;;
9860;SDS011;4969;52.304;4.968;2022-12-19T02:47:46;23.73;;;20.43;;
9860;SDS011;4969;52.304;4.968;2022-12-19T02:50:13;26.13;;;21.30;;
9860;SDS011;4969;52.304;4.968;2022-12-19T02:52:44;28.63;;;19.87;;
9860;SDS011;4969;52.304;4.968;2022-12-19T02:55:14;19.93;;;17.37;;
9860;SDS011;4969;52.304;4.968;2022-12-19T02:57:48;30.27;;;21.83;;
9860;SDS011;4969;52.304;4.968;2022-12-19T03:00:33;26.23;;;20.77;;
9860;SDS011;4969;52.304;4.968;2022-12-19T03:03:07;22.77;;;18.53;;
9860;SDS011;4969;52.304;4.968;2022-12-19T03:05:39;16.47;;;14.73;;
9860;SDS011;4969;52.304;4.968;2022-12-19T03:08:13;21.93;;;18.60;;
9860;SDS011;4969;52.304;4.968;2022-12-19T03:10:50;18.37;;;15.77;;
9860;SDS011;4969;52.304;4.968;2022-12-19T03:13:23;24.50;;;18.27;;
9860;SDS011;4969;52.304;4.968;2022-12-19T03:15:53;24.33;;;18.43;;
9860;SDS011;4969;52.304;4.968;2022-12-19T03:18:22;15.33;;;12.97;;
9860;SDS011;4969;52.304;4.968;2022-12-19T03:20:51;22.77;;;16.00;;
9860;SDS011;4969;52.304;4.968;2022-12-19T03:23:24;21.63;;;16.70;;
9860;SDS011;4969;52.304;4.968;2022-12-19T03:25:53;19.53;;;17.27;;
9860;SDS011;4969;52.304;4.968;2022-12-19T03:28:24;24.60;;;18.10;;
9860;SDS011;4969;52.304;4.968;2022-12-19T03:30:53;16.40;;;14.20;;
9860;SDS011;4969;52.304;4.968;2022-12-19T03:33:22;19.40;;;16.60;;
9860;SDS011;4969;52.304;4.968;2022-12-19T03:35:54;20.43;;;16.90;;
9860;SDS011;4969;52.304;4.968;2022-12-19T03:38:22;18.20;;;16.23;;
9860;SDS011;4969;52.304;4.968;2022-12-19T03:40:51;17.53;;;15.10;;
9860;SDS011;4969;52.304;4.968;2022-12-19T03:43:19;18.43;;;16.33;;
9860;SDS011;4969;52.304;4.968;2022-12-19T03:45:49;16.97;;;14.17;;
9860;SDS011;4969;52.304;4.968;2022-12-19T03:48:21;16.77;;;13.80;;
9860;SDS011;4969;52.304;4.968;2022-12-19T03:50:59;13.83;;;12.33;;
9860;SDS011;4969;52.304;4.968;2022-12-19T03:53:35;14.97;;;13.37;;
9860;SDS011;4969;52.304;4.968;2022-12-19T03:56:09;14.33;;;11.90;;
9860;SDS011;4969;52.304;4.968;2022-12-19T03:58:43;14.23;;;12.43;;
9860;SDS011;4969;52.304;4.968;2022-12-19T04:01:14;10.00;;;8.57;;
9860;SDS011;4969;52.304;4.968;2022-12-19T04:03:42;14.00;;;11.37;;
9860;SDS011;4969;52.304;4.968;2022-12-19T04:06:09;13.40;;;11.17;;
9860;SDS011;4969;52.304;4.968;2022-12-19T04:08:36;11.53;;;9.70;;
9860;SDS011;4969;52.304;4.968;2022-12-19T04:11:05;14.37;;;10.17;;
9860;SDS011;4969;52.304;4.968;2022-12-19T04:13:34;13.63;;;11.33;;
9860;SDS011;4969;52.304;4.968;2022-12-19T04:16:05;9.60;;;8.60;;
9860;SDS011;4969;52.304;4.968;2022-12-19T04:18:39;10.13;;;9.13;;
9860;SDS011;4969;52.304;4.968;2022-12-19T04:21:12;11.70;;;10.50;;
9860;SDS011;4969;52.304;4.968;2022-12-19T04:23:52;11.30;;;9.23;;
9860;SDS011;4969;52.304;4.968;2022-12-19T04:26:21;9.70;;;8.73;;
9860;SDS011;4969;52.304;4.968;2022-12-19T04:28:50;12.00;;;10.70;;
9860;SDS011;4969;52.304;4.968;2022-12-19T04:31:19;11.17;;;9.93;;
9860;SDS011;4969;52.304;4.968;2022-12-19T04:33:46;10.77;;;7.97;;
9860;SDS011;4969;52.304;4.968;2022-12-19T04:36:15;9.33;;;7.73;;
9860;SDS011;4969;52.304;4.968;2022-12-19T04:38:41;9.00;;;8.10;;
9860;SDS011;4969;52.304;4.968;2022-12-19T04:41:08;9.47;;;8.57;;
9860;SDS011;4969;52.304;4.968;2022-12-19T04:43:34;9.87;;;8.70;;
9860;SDS011;4969;52.304;4.968;2022-12-19T04:46:01;10.47;;;8.80;;
9860;SDS011;4969;52.304;4.968;2022-12-19T04:48:28;8.27;;;7.47;;
9860;SDS011;4969;52.304;4.968;2022-12-19T04:50:54;7.80;;;7.00;;
9860;SDS011;4969;52.304;4.968;2022-12-19T04:53:22;12.73;;;9.53;;
9860;SDS011;4969;52.304;4.968;2022-12-19T04:55:49;6.70;;;6.10;;
9860;SDS011;4969;52.304;4.968;2022-12-19T04:58:16;8.67;;;7.77;;
9860;SDS011;4969;52.304;4.968;2022-12-19T05:00:42;8.53;;;7.73;;
9860;SDS011;4969;52.304;4.968;2022-12-19T05:03:09;9.67;;;8.70;;
9860;SDS011;4969;52.304;4.968;2022-12-19T05:05:35;7.57;;;6.87;;
9860;SDS011;4969;52.304;4.968;2022-12-19T05:08:02;9.83;;;8.83;;
9860;SDS011;4969;52.304;4.968;2022-12-19T05:10:30;9.60;;;7.63;;
9860;SDS011;4969;52.304;4.968;2022-12-19T05:12:57;8.00;;;7.30;;
9860;SDS011;4969;52.304;4.968;2022-12-19T05:15:24;8.20;;;7.40;;
9860;SDS011;4969;52.304;4.968;2022-12-19T05:17:50;6.23;;;5.67;;
9860;SDS011;4969;52.304;4.968;2022-12-19T05:20:17;7.50;;;6.63;;
9860;SDS011;4969;52.304;4.968;2022-12-19T05:22:43;8.13;;;7.27;;
9860;SDS011;4969;52.304;4.968;2022-12-19T05:25:10;7.13;;;6.53;;
9860;SDS011;4969;52.304;4.968;2022-12-19T05:27:38;6.80;;;6.20;;
9860;SDS011;4969;52.304;4.968;2022-12-19T05:30:05;7.23;;;6.53;;
9860;SDS011;4969;52.304;4.968;2022-12-19T05:32:32;5.30;;;4.90;;
9860;SDS011;4969;52.304;4.968;2022-12-19T05:34:59;8.07;;;7.30;;
9860;SDS011;4969;52.304;4.968;2022-12-19T05:37:25;6.20;;;5.60;;
9860;SDS011;4969;52.304;4.968;2022-12-19T05:39:52;6.60;;;6.00;;
9860;SDS011;4969;52.304;4.968;2022-12-19T05:42:18;5.83;;;5.33;;
9860;SDS011;4969;52.304;4.968;2022-12-19T05:44:46;6.10;;;5.60;;
9860;SDS011;4969;52.304;4.968;2022-12-19T05:47:13;6.70;;;6.10;;
9860;SDS011;4969;52.304;4.968;2022-12-19T05:49:39;6.03;;;5.47;;
9860;SDS011;4969;52.304;4.968;2022-12-19T05:52:06;5.67;;;5.20;;
9860;SDS011;4969;52.304;4.968;2022-12-19T05:54:33;5.93;;;5.43;;
9860;SDS011;4969;52.304;4.968;2022-12-19T05:56:59;6.03;;;5.30;;
9860;SDS011;4969;52.304;4.968;2022-12-19T05:59:26;5.30;;;4.90;;
9860;SDS011;4969;52.304;4.968;2022-12-19T06:01:54;6.37;;;5.77;;
9860;SDS011;4969;52.304;4.968;2022-12-19T06:04:20;5.47;;;5.00;;
9860;SDS011;4969;52.304;4.968;2022-12-19T06:06:47;4.67;;;4.37;;
9860;SDS011;4969;52.304;4.968;2022-12-19T06:09:13;5.80;;;5.30;;
9860;SDS011;4969;52.304;4.968;2022-12-19T06:11:40;5.00;;;4.60;;
9860;SDS011;4969;52.304;4.968;2022-12-19T06:14:06;5.17;;;3.87;;
9860;SDS011;4969;52.304;4.968;2022-12-19T06:16:33;5.80;;;5.30;;
9860;SDS011;4969;52.304;4.968;2022-12-19T06:19:01;5.10;;;4.70;;
9860;SDS011;4969;52.304;4.968;2022-12-19T06:21:28;5.37;;;4.87;;
9860;SDS011;4969;52.304;4.968;2022-12-19T06:23:55;5.13;;;4.73;;
9860;SDS011;4969;52.304;4.968;2022-12-19T06:26:21;5.53;;;5.10;;
9860;SDS011;4969;52.304;4.968;2022-12-19T06:28:48;4.67;;;4.30;;
9860;SDS011;4969;52.304;4.968;2022-12-19T06:31:17;5.30;;;4.90;;
9860;SDS011;4969;52.304;4.968;2022-12-19T06:33:44;5.07;;;4.67;;
9860;SDS011;4969;52.304;4.968;2022-12-19T06:36:12;5.30;;;4.83;;
9860;SDS011;4969;52.304;4.968;2022-12-19T06:38:41;5.00;;;4.60;;
9860;SDS011;4969;52.304;4.968;2022-12-19T06:41:08;4.63;;;4.27;;
9860;SDS011;4969;52.304;4.968;2022-12-19T06:43:55;4.77;;;4.37;;
9860;SDS011;4969;52.304;4.968;2022-12-19T06:46:22;4.47;;;4.10;;
9860;SDS011;4969;52.304;4.968;2022-12-19T06:48:49;6.20;;;4.63;;
9860;SDS011;4969;52.304;4.968;2022-12-19T06:51:18;4.90;;;4.50;;
9860;SDS011;4969;52.304;4.968;2022-12-19T06:53:44;4.53;;;4.23;;
9860;SDS011;4969;52.304;4.968;2022-12-19T06:56:12;5.13;;;4.73;;
9860;SDS011;4969;52.304;4.968;2022-12-19T06:58:40;4.50;;;4.20;;
9860;SDS011;4969;52.304;4.968;2022-12-19T07:01:07;4.77;;;4.37;;
9860;SDS011;4969;52.304;4.968;2022-12-19T07:03:41;4.50;;;4.20;;
9860;SDS011;4969;52.304;4.968;2022-12-19T07:06:08;6.00;;;3.67;;
9860;SDS011;4969;52.304;4.968;2022-12-19T07:08:36;4.70;;;4.30;;
9860;SDS011;4969;52.304;4.968;2022-12-19T07:11:02;5.10;;;4.70;;
9860;SDS011;4969;52.304;4.968;2022-12-19T07:13:29;4.43;;;4.13;;
9860;SDS011;4969;52.304;4.968;2022-12-19T07:15:55;4.90;;;4.20;;
9860;SDS011;4969;52.304;4.968;2022-12-19T07:18:23;5.30;;;4.90;;
9860;SDS011;4969;52.304;4.968;2022-12-19T07:20:50;6.00;;;5.50;;
9860;SDS011;4969;52.304;4.968;2022-12-19T07:23:17;5.23;;;4.67;;
9860;SDS011;4969;52.304;4.968;2022-12-19T07:25:47;5.10;;;4.63;;
9860;SDS011;4969;52.304;4.968;2022-12-19T07:28:14;5.23;;;4.83;;
9860;SDS011;4969;52.304;4.968;2022-12-19T07:30:41;4.93;;;4.50;;
9860;SDS011;4969;52.304;4.968;2022-12-19T07:33:08;6.63;;;4.80;;
9860;SDS011;4969;52.304;4.968;2022-12-19T07:35:35;3.97;;;3.67;;
9860;SDS011;4969;52.304;4.968;2022-12-19T07:38:01;5.20;;;4.70;;
9860;SDS011;4969;52.304;4.968;2022-12-19T07:40:30;5.90;;;4.60;;
9860;SDS011;4969;52.304;4.968;2022-12-19T07:42:59;4.97;;;4.57;;
9860;SDS011;4969;52.304;4.968;2022-12-19T07:45:26;5.20;;;4.70;;
9860;SDS011;4969;52.304;4.968;2022-12-19T07:47:52;5.03;;;4.57;;
9860;SDS011;4969;52.304;4.968;2022-12-19T07:50:19;4.50;;;4.20;;
9860;SDS011;4969;52.304;4.968;2022-12-19T07:52:46;5.10;;;4.57;;
9860;SDS011;4969;52.304;4.968;2022-12-19T07:55:13;6.43;;;4.80;;
9860;SDS011;4969;52.304;4.968;2022-12-19T07:57:39;5.47;;;5.07;;
9860;SDS011;4969;52.304;4.968;2022-12-19T08:00:08;5.27;;;4.77;;
9860;SDS011;4969;52.304;4.968;2022-12-19T08:02:35;5.90;;;5.20;;
9860;SDS011;4969;52.304;4.968;2022-12-19T08:05:02;4.73;;;4.33;;
9860;SDS011;4969;52.304;4.968;2022-12-19T08:07:30;5.23;;;4.83;;
9860;SDS011;4969;52.304;4.968;2022-12-19T08:09:56;7.80;;;4.73;;
9860;SDS011;4969;52.304;4.968;2022-12-19T08:12:23;5.87;;;5.37;;
9860;SDS011;4969;52.304;4.968;2022-12-19T08:14:51;5.03;;;4.57;;
9860;SDS011;4969;52.304;4.968;2022-12-19T08:17:19;4.83;;;4.40;;
9860;SDS011;4969;52.304;4.968;2022-12-19T08:19:45;5.33;;;4.83;;
9860;SDS011;4969;52.304;4.968;2022-12-19T08:22:12;6.47;;;4.70;;
9860;SDS011;4969;52.304;4.968;2022-12-19T08:24:38;5.00;;;4.60;;
9860;SDS011;4969;52.304;4.968;2022-12-19T08:27:05;4.97;;;4.57;;
9860;SDS011;4969;52.304;4.968;2022-12-19T08:29:31;4.77;;;4.27;;
9860;SDS011;4969;52.304;4.968;2022-12-19T08:31:58;4.77;;;4.37;;
9860;SDS011;4969;52.304;4.968;2022-12-19T08:34:26;5.20;;;4.80;;
9860;SDS011;4969;52.304;4.968;2022-12-19T08:36:52;5.10;;;4.70;;
9860;SDS011;4969;52.304;4.968;2022-12-19T08:39:19;5.37;;;4.87;;
9860;SDS011;4969;52.304;4.968;2022-12-19T08:41:46;5.10;;;4.63;;
9860;SDS011;4969;52.304;4.968;2022-12-19T08:44:12;4.47;;;4.07;;
9860;SDS011;4969;52.304;4.968;2022-12-19T08:46:39;4.53;;;4.13;;
9860;SDS011;4969;52.304;4.968;2022-12-19T08:49:05;5.23;;;4.73;;
9860;SDS011;4969;52.304;4.968;2022-12-19T08:51:34;4.67;;;4.27;;
9860;SDS011;4969;52.304;4.968;2022-12-19T08:54:01;4.47;;;4.07;;
9860;SDS011;4969;52.304;4.968;2022-12-19T08:56:27;4.97;;;4.57;;
9860;SDS011;4969;52.304;4.968;2022-12-19T08:58:54;4.37;;;4.07;;
9860;SDS011;4969;52.304;4.968;2022-12-19T09:01:21;4.80;;;4.40;;
9860;SDS011;4969;52.304;4.968;2022-12-19T09:03:49;4.80;;;4.40;;
9860;SDS011;4969;52.304;4.968;2022-12-19T09:06:16;4.17;;;3.83;;
9860;SDS011;4969;52.304;4.968;2022-12-19T09:08:44;4.87;;;4.47;;
9860;SDS011;4969;52.304;4.968;2022-12-19T09:11:11;4.43;;;4.10;;
9860;SDS011;4969;52.304;4.968;2022-12-19T09:13:40;4.50;;;4.10;;
9860;SDS011;4969;52.304;4.968;2022-12-19T09:16:09;5.13;;;4.67;;
9860;SDS011;4969;52.304;4.968;2022-12-19T09:18:37;4.83;;;4.43;;
9860;SDS011;4969;52.304;4.968;2022-12-19T09:21:04;4.77;;;4.30;;
9860;SDS011;4969;52.304;4.968;2022-12-19T09:23:31;3.93;;;3.53;;
9860;SDS011;4969;52.304;4.968;2022-12-19T09:26:02;4.50;;;4.10;;
9860;SDS011;4969;52.304;4.968;2022-12-19T09:28:29;4.30;;;4.00;;
9860;SDS011;4969;52.304;4.968;2022-12-19T09:30:56;4.33;;;3.93;;
9860;SDS011;4969;52.304;4.968;2022-12-19T09:33:24;4.63;;;4.23;;
9860;SDS011;4969;52.304;4.968;2022-12-19T09:35:52;4.67;;;4.33;;
9860;SDS011;4969;52.304;4.968;2022-12-19T09:38:20;5.00;;;4.60;;
9860;SDS011;4969;52.304;4.968;2022-12-19T09:40:51;5.07;;;4.67;;
9860;SDS011;4969;52.304;4.968;2022-12-19T09:43:29;5.43;;;4.13;;
9860;SDS011;4969;52.304;4.968;2022-12-19T09:46:06;6.40;;;4.10;;
9860;SDS011;4969;52.304;4.968;2022-12-19T09:48:38;4.67;;;4.27;;
9860;SDS011;4969;52.304;4.968;2022-12-19T09:51:06;4.13;;;3.73;;
9860;SDS011;4969;52.304;4.968;2022-12-19T09:53:39;4.90;;;4.50;;
9860;SDS011;4969;52.304;4.968;2022-12-19T09:56:14;5.33;;;4.17;;
9860;SDS011;4969;52.304;4.968;2022-12-19T09:58:43;4.80;;;4.40;;
9860;SDS011;4969;52.304;4.968;2022-12-19T10:01:15;5.93;;;5.33;;
9860;SDS011;4969;52.304;4.968;2022-12-19T10:03:49;12.67;;;8.83;;
9860;SDS011;4969;52.304;4.968;2022-12-19T10:06:23;11.53;;;9.20;;
9860;SDS011;4969;52.304;4.968;2022-12-19T10:08:50;10.67;;;8.30;;
9860;SDS011;4969;52.304;4.968;2022-12-19T10:11:22;10.93;;;8.43;;
9860;SDS011;4969;52.304;4.968;2022-12-19T10:14:06;5.97;;;5.47;;
9860;SDS011;4969;52.304;4.968;2022-12-19T10:16:50;6.40;;;5.67;;
9860;SDS011;4969;52.304;4.968;2022-12-19T10:19:25;6.57;;;5.87;;
9860;SDS011;4969;52.304;4.968;2022-12-19T10:22:03;6.60;;;5.47;;
9860;SDS011;4969;52.304;4.968;2022-12-19T10:24:43;8.17;;;6.47;;
9860;SDS011;4969;52.304;4.968;2022-12-19T10:27:32;11.10;;;7.30;;
9860;SDS011;4969;52.304;4.968;2022-12-19T10:30:08;6.27;;;5.33;;
9860;SDS011;4969;52.304;4.968;2022-12-19T10:32:39;9.63;;;7.00;;
9860;SDS011;4969;52.304;4.968;2022-12-19T10:35:16;8.97;;;7.53;;
9860;SDS011;4969;52.304;4.968;2022-12-19T10:37:45;6.77;;;5.80;;
9860;SDS011;4969;52.304;4.968;2022-12-19T10:40:19;7.20;;;6.13;;
9860;SDS011;4969;52.304;4.968;2022-12-19T10:42:50;5.80;;;4.70;;
9860;SDS011;4969;52.304;4.968;2022-12-19T10:45:22;5.33;;;4.83;;
9860;SDS011;4969;52.304;4.968;2022-12-19T10:47:50;6.27;;;5.67;;
9860;SDS011;4969;52.304;4.968;2022-12-19T10:50:21;6.20;;;5.50;;
9860;SDS011;4969;52.304;4.968;2022-12-19T10:52:51;9.80;;;7.10;;
9860;SDS011;4969;52.304;4.968;2022-12-19T10:55:29;7.37;;;6.63;;
9860;SDS011;4969;52.304;4.968;2022-12-19T10:58:10;7.13;;;6.40;;
9860;SDS011;4969;52.304;4.968;2022-12-19T11:00:45;9.63;;;8.13;;
9860;SDS011;4969;52.304;4.968;2022-12-19T11:03:31;6.80;;;6.10;;
9860;SDS011;4969;52.304;4.968;2022-12-19T11:05:58;8.40;;;6.87;;
9860;SDS011;4969;52.304;4.968;2022-12-19T11:08:27;9.97;;;8.97;;
9860;SDS011;4969;52.304;4.968;2022-12-19T11:10:55;5.97;;;5.47;;
9860;SDS011;4969;52.304;4.968;2022-12-19T11:13:38;9.07;;;7.57;;
9860;SDS011;4969;52.304;4.968;2022-12-19T11:16:08;8.70;;;6.55;;
9860;SDS011;4969;52.304;4.968;2022-12-19T11:18:36;8.90;;;8.07;;
9860;SDS011;4969;52.304;4.968;2022-12-19T11:21:05;6.45;;;5.38;;
9860;SDS011;4969;52.304;4.968;2022-12-19T11:23:43;8.67;;;6.87;;
9860;SDS011;4969;52.304;4.968;2022-12-19T11:26:24;10.17;;;7.53;;
9860;SDS011;4969;52.304;4.968;2022-12-19T11:28:59;9.10;;;7.35;;
9860;SDS011;4969;52.304;4.968;2022-12-19T11:31:30;6.15;;;5.53;;
9860;SDS011;4969;52.304;4.968;2022-12-19T11:34:04;8.27;;;6.55;;
9860;SDS011;4969;52.304;4.968;2022-12-19T11:36:33;7.22;;;6.18;;
9860;SDS011;4969;52.304;4.968;2022-12-19T11:39:04;9.38;;;7.00;;
9860;SDS011;4969;52.304;4.968;2022-12-19T11:41:38;7.43;;;5.65;;
9860;SDS011;4969;52.304;4.968;2022-12-19T11:44:10;7.07;;;6.38;;
9860;SDS011;4969;52.304;4.968;2022-12-19T11:46:51;4.18;;;3.50;;
9860;SDS011;4969;52.304;4.968;2022-12-19T11:49:23;7.97;;;7.18;;
9860;SDS011;4969;52.304;4.968;2022-12-19T11:51:54;6.20;;;5.13;;
9860;SDS011;4969;52.304;4.968;2022-12-19T11:54:26;8.75;;;7.88;;
9860;SDS011;4969;52.304;4.968;2022-12-19T11:56:57;8.40;;;7.35;;
9860;SDS011;4969;52.304;4.968;2022-12-19T11:59:26;8.43;;;7.60;;
9860;SDS011;4969;52.304;4.968;2022-12-19T12:02:04;6.95;;;6.05;;
9860;SDS011;4969;52.304;4.968;2022-12-19T12:04:45;7.05;;;6.22;;
9860;SDS011;4969;52.304;4.968;2022-12-19T12:07:36;8.23;;;7.43;;
9860;SDS011;4969;52.304;4.968;2022-12-19T12:10:09;6.82;;;6.13;;
9860;SDS011;4969;52.304;4.968;2022-12-19T12:12:43;8.38;;;7.57;;
9860;SDS011;4969;52.304;4.968;2022-12-19T12:15:28;7.20;;;6.50;;
9860;SDS011;4969;52.304;4.968;2022-12-19T12:18:13;6.65;;;5.95;;
9860;SDS011;4969;52.304;4.968;2022-12-19T12:20:53;6.70;;;6.03;;
9860;SDS011;4969;52.304;4.968;2022-12-19T12:23:31;7.72;;;6.93;;
9860;SDS011;4969;52.304;4.968;2022-12-19T12:26:02;8.63;;;7.22;;
9860;SDS011;4969;52.304;4.968;2022-12-19T12:28:48;6.93;;;6.32;;
9860;SDS011;4969;52.304;4.968;2022-12-19T12:31:30;8.38;;;7.30;;
9860;SDS011;4969;52.304;4.968;2022-12-19T12:37:11;6.70;;;6.10;;
9860;SDS011;4969;52.304;4.968;2022-12-19T12:39:51;6.97;;;6.28;;
9860;SDS011;4969;52.304;4.968;2022-12-19T12:42:32;7.03;;;6.30;;
9860;SDS011;4969;52.304;4.968;2022-12-19T12:45:15;6.60;;;6.00;;
9860;SDS011;4969;52.304;4.968;2022-12-19T12:47:44;4.80;;;4.30;;
9860;SDS011;4969;52.304;4.968;2022-12-19T12:50:15;6.68;;;5.93;;
9860;SDS011;4969;52.304;4.968;2022-12-19T12:52:44;7.22;;;5.90;;
9860;SDS011;4969;52.304;4.968;2022-12-19T12:55:14;6.57;;;5.93;;
9860;SDS011;4969;52.304;4.968;2022-12-19T12:57:47;10.93;;;9.30;;
9860;SDS011;4969;52.304;4.968;2022-12-19T13:00:18;10.00;;;8.98;;
9860;SDS011;4969;52.304;4.968;2022-12-19T13:02:49;8.10;;;7.28;;
9860;SDS011;4969;52.304;4.968;2022-12-19T13:05:31;12.10;;;10.60;;
9860;SDS011;4969;52.304;4.968;2022-12-19T13:08:02;11.48;;;9.57;;
9860;SDS011;4969;52.304;4.968;2022-12-19T13:11:10;8.30;;;7.32;;
9860;SDS011;4969;52.304;4.968;2022-12-19T13:14:00;13.65;;;10.00;;
9860;SDS011;4969;52.304;4.968;2022-12-19T13:19:20;9.25;;;7.78;;
9860;SDS011;4969;52.304;4.968;2022-12-19T13:24:43;12.98;;;10.25;;
9860;SDS011;4969;52.304;4.968;2022-12-19T13:30:14;7.28;;;5.78;;
9860;SDS011;4969;52.304;4.968;2022-12-19T13:35:32;11.10;;;8.05;;
9860;SDS011;4969;52.304;4.968;2022-12-19T13:38:02;8.93;;;8.00;;
9860;SDS011;4969;52.304;4.968;2022-12-19T13:40:50;10.52;;;8.93;;
9860;SDS011;4969;52.304;4.968;2022-12-19T13:43:21;6.78;;;6.10;;
9860;SDS011;4969;52.304;4.968;2022-12-19T13:46:17;7.07;;;6.35;;
9860;SDS011;4969;52.304;4.968;2022-12-19T13:48:49;13.43;;;9.88;;
9860;SDS011;4969;52.304;4.968;2022-12-19T13:51:17;6.20;;;5.38;;
9860;SDS011;4969;52.304;4.968;2022-12-19T13:53:45;13.15;;;11.48;;
9860;SDS011;4969;52.304;4.968;2022-12-19T13:56:17;8.10;;;7.22;;
9860;SDS011;4969;52.304;4.968;2022-12-19T13:58:45;12.73;;;10.95;;
9860;SDS011;4969;52.304;4.968;2022-12-19T14:01:14;14.30;;;10.85;;
9860;SDS011;4969;52.304;4.968;2022-12-19T14:03:44;14.70;;;12.05;;
9860;SDS011;4969;52.304;4.968;2022-12-19T14:06:15;9.50;;;8.38;;
9860;SDS011;4969;52.304;4.968;2022-12-19T14:08:47;6.30;;;5.72;;
9860;SDS011;4969;52.304;4.968;2022-12-19T14:11:15;10.50;;;8.75;;
9860;SDS011;4969;52.304;4.968;2022-12-19T14:13:45;17.45;;;14.32;;
9860;SDS011;4969;52.304;4.968;2022-12-19T14:16:32;10.48;;;9.02;;
9860;SDS011;4969;52.304;4.968;2022-12-19T14:18:58;18.45;;;11.52;;
9860;SDS011;4969;52.304;4.968;2022-12-19T14:21:25;11.38;;;10.20;;
9860;SDS011;4969;52.304;4.968;2022-12-19T14:24:08;14.50;;;11.60;;
9860;SDS011;4969;52.304;4.968;2022-12-19T14:26:36;9.82;;;8.85;;
9860;SDS011;4969;52.304;4.968;2022-12-19T14:29:05;13.10;;;9.98;;
9860;SDS011;4969;52.304;4.968;2022-12-19T14:31:34;4.88;;;4.45;;
9860;SDS011;4969;52.304;4.968;2022-12-19T14:34:03;8.07;;;7.28;;
9860;SDS011;4969;52.304;4.968;2022-12-19T14:36:32;12.20;;;10.18;;
9860;SDS011;4969;52.304;4.968;2022-12-19T14:39:01;19.08;;;13.30;;
9860;SDS011;4969;52.304;4.968;2022-12-19T14:41:37;8.55;;;5.85;;
9860;SDS011;4969;52.304;4.968;2022-12-19T14:44:23;8.70;;;7.85;;
9860;SDS011;4969;52.304;4.968;2022-12-19T14:47:09;13.60;;;11.98;;
9860;SDS011;4969;52.304;4.968;2022-12-19T14:49:38;11.98;;;10.40;;
9860;SDS011;4969;52.304;4.968;2022-12-19T14:52:30;8.90;;;7.40;;
9860;SDS011;4969;52.304;4.968;2022-12-19T14:57:52;9.15;;;7.13;;
9860;SDS011;4969;52.304;4.968;2022-12-19T15:00:21;10.95;;;8.07;;
9860;SDS011;4969;52.304;4.968;2022-12-19T15:02:49;10.63;;;9.30;;
9860;SDS011;4969;52.304;4.968;2022-12-19T15:05:17;7.63;;;6.85;;
9860;SDS011;4969;52.304;4.968;2022-12-19T15:07:45;8.60;;;7.07;;
9860;SDS011;4969;52.304;4.968;2022-12-19T15:10:14;10.80;;;8.52;;
9860;SDS011;4969;52.304;4.968;2022-12-19T15:12:47;5.40;;;4.80;;
9860;SDS011;4969;52.304;4.968;2022-12-19T15:15:38;7.40;;;6.10;;
9860;SDS011;4969;52.304;4.968;2022-12-19T15:21:04;4.40;;;4.00;;
9860;SDS011;4969;52.304;4.968;2022-12-19T15:23:32;8.90;;;8.00;;
9860;SDS011;4969;52.304;4.968;2022-12-19T15:25:59;7.20;;;5.82;;
9860;SDS011;4969;52.304;4.968;2022-12-19T15:28:29;4.05;;;3.75;;
9860;SDS011;4969;52.304;4.968;2022-12-19T15:31:05;5.07;;;4.15;;
9860;SDS011;4969;52.304;4.968;2022-12-19T15:33:35;10.73;;;9.48;;
9860;SDS011;4969;52.304;4.968;2022-12-19T15:36:02;12.00;;;9.20;;
9860;SDS011;4969;52.304;4.968;2022-12-19T15:38:29;12.10;;;10.18;;
9860;SDS011;4969;52.304;4.968;2022-12-19T15:40:55;9.45;;;8.48;;
9860;SDS011;4969;52.304;4.968;2022-12-19T15:43:22;4.05;;;3.72;;
9860;SDS011;4969;52.304;4.968;2022-12-19T15:45:50;7.05;;;5.90;;
9860;SDS011;4969;52.304;4.968;2022-12-19T15:48:24;7.18;;;6.47;;